Terminal Aerodrome Forecast
Issued by NWS Austin/San Antonio, TX

Home | Current Version | Previous Version | Text Only | Print | Product List | Glossary On
Versions: 1 2 3 4 5 6 7 8 9 10 11 12 13 14 15 16 17 18 19 20 21 22 23 24 25 26 27 28
000
FTUS44 KEWX 041737
TAFSAT
TAF
KSAT 041737Z 0418/0524 35012KT P6SM -SHRA BKN010 OVC025
      TEMPO 0418/0422 2SM SHRA
     FM050200 01012KT P6SM -SHRA OVC008
      TEMPO 0504/0508 2SM -TSRA BR OVC007CB
     FM052000 27008KT P6SM VCSH SCT010 OVC030=

USA.gov is the U.S. government's official web portal to all federal, state and local government web resources and services.